sensor_id;sensor_type;location;lat;lon;timestamp;P1;durP1;ratioP1;P2;durP2;ratioP2
70683;SDS011;58263;48.146;11.440;2023-05-13T00:02:03;5.07;;;3.70;;
70683;SDS011;58263;48.146;11.440;2023-05-13T00:04:30;6.50;;;3.60;;
70683;SDS011;58263;48.146;11.440;2023-05-13T00:06:55;5.90;;;4.40;;
70683;SDS011;58263;48.146;11.440;2023-05-13T00:09:21;6.83;;;4.03;;
70683;SDS011;58263;48.146;11.440;2023-05-13T00:11:46;6.27;;;4.30;;
70683;SDS011;58263;48.146;11.440;2023-05-13T00:14:11;5.87;;;4.17;;
70683;SDS011;58263;48.146;11.440;2023-05-13T00:16:37;7.10;;;3.88;;
70683;SDS011;58263;48.146;11.440;2023-05-13T00:19:02;5.73;;;3.80;;
70683;SDS011;58263;48.146;11.440;2023-05-13T00:21:27;5.80;;;3.73;;
70683;SDS011;58263;48.146;11.440;2023-05-13T00:23:53;6.65;;;4.47;;
70683;SDS011;58263;48.146;11.440;2023-05-13T00:26:18;7.55;;;3.97;;
70683;SDS011;58263;48.146;11.440;2023-05-13T00:28:44;5.70;;;3.90;;
70683;SDS011;58263;48.146;11.440;2023-05-13T00:31:09;6.47;;;3.87;;
70683;SDS011;58263;48.146;11.440;2023-05-13T00:33:34;5.53;;;4.28;;
70683;SDS011;58263;48.146;11.440;2023-05-13T00:36:00;6.25;;;4.30;;
70683;SDS011;58263;48.146;11.440;2023-05-13T00:38:26;7.80;;;4.07;;
70683;SDS011;58263;48.146;11.440;2023-05-13T00:40:51;6.63;;;4.60;;
70683;SDS011;58263;48.146;11.440;2023-05-13T00:43:16;6.38;;;4.30;;
70683;SDS011;58263;48.146;11.440;2023-05-13T00:45:42;6.93;;;4.40;;
70683;SDS011;58263;48.146;11.440;2023-05-13T00:48:07;5.90;;;4.27;;
70683;SDS011;58263;48.146;11.440;2023-05-13T00:50:33;7.47;;;4.43;;
70683;SDS011;58263;48.146;11.440;2023-05-13T00:52:58;7.30;;;4.57;;
70683;SDS011;58263;48.146;11.440;2023-05-13T00:55:25;7.90;;;4.90;;
70683;SDS011;58263;48.146;11.440;2023-05-13T00:57:51;8.27;;;4.73;;
70683;SDS011;58263;48.146;11.440;2023-05-13T01:00:16;7.78;;;4.80;;
70683;SDS011;58263;48.146;11.440;2023-05-13T01:05:30;7.00;;;4.97;;
70683;SDS011;58263;48.146;11.440;2023-05-13T01:11:18;7.45;;;4.95;;
70683;SDS011;58263;48.146;11.440;2023-05-13T01:13:49;7.93;;;5.00;;
70683;SDS011;58263;48.146;11.440;2023-05-13T01:16:28;7.95;;;4.93;;
70683;SDS011;58263;48.146;11.440;2023-05-13T01:19:00;9.90;;;6.38;;
70683;SDS011;58263;48.146;11.440;2023-05-13T01:21:34;8.40;;;5.28;;
70683;SDS011;58263;48.146;11.440;2023-05-13T01:23:59;10.13;;;6.05;;
70683;SDS011;58263;48.146;11.440;2023-05-13T01:26:25;8.07;;;5.27;;
70683;SDS011;58263;48.146;11.440;2023-05-13T01:28:50;8.75;;;5.40;;
70683;SDS011;58263;48.146;11.440;2023-05-13T01:31:16;8.95;;;5.30;;
70683;SDS011;58263;48.146;11.440;2023-05-13T01:33:42;8.48;;;6.07;;
70683;SDS011;58263;48.146;11.440;2023-05-13T01:36:08;8.05;;;5.45;;
70683;SDS011;58263;48.146;11.440;2023-05-13T01:38:34;9.50;;;5.90;;
70683;SDS011;58263;48.146;11.440;2023-05-13T01:41:01;9.68;;;5.70;;
70683;SDS011;58263;48.146;11.440;2023-05-13T01:43:26;9.13;;;5.47;;
70683;SDS011;58263;48.146;11.440;2023-05-13T01:45:52;9.30;;;6.00;;
70683;SDS011;58263;48.146;11.440;2023-05-13T01:48:17;9.82;;;6.45;;
70683;SDS011;58263;48.146;11.440;2023-05-13T01:50:43;9.30;;;5.70;;
70683;SDS011;58263;48.146;11.440;2023-05-13T01:53:09;10.73;;;6.65;;
70683;SDS011;58263;48.146;11.440;2023-05-13T01:55:34;8.90;;;5.70;;
70683;SDS011;58263;48.146;11.440;2023-05-13T01:57:59;9.48;;;6.35;;
70683;SDS011;58263;48.146;11.440;2023-05-13T02:00:25;10.20;;;6.07;;
70683;SDS011;58263;48.146;11.440;2023-05-13T02:02:50;11.40;;;5.70;;
70683;SDS011;58263;48.146;11.440;2023-05-13T02:05:15;10.97;;;7.17;;
70683;SDS011;58263;48.146;11.440;2023-05-13T02:07:41;11.25;;;5.68;;
70683;SDS011;58263;48.146;11.440;2023-05-13T02:10:06;11.67;;;6.87;;
70683;SDS011;58263;48.146;11.440;2023-05-13T02:12:32;10.75;;;6.70;;
70683;SDS011;58263;48.146;11.440;2023-05-13T02:14:57;9.93;;;5.80;;
70683;SDS011;58263;48.146;11.440;2023-05-13T02:17:22;9.63;;;6.65;;
70683;SDS011;58263;48.146;11.440;2023-05-13T02:19:48;9.18;;;5.75;;
70683;SDS011;58263;48.146;11.440;2023-05-13T02:22:13;11.50;;;6.28;;
70683;SDS011;58263;48.146;11.440;2023-05-13T02:24:39;10.57;;;6.18;;
70683;SDS011;58263;48.146;11.440;2023-05-13T02:27:05;9.65;;;6.28;;
70683;SDS011;58263;48.146;11.440;2023-05-13T02:29:31;11.20;;;6.20;;
70683;SDS011;58263;48.146;11.440;2023-05-13T02:31:57;9.48;;;6.10;;
70683;SDS011;58263;48.146;11.440;2023-05-13T02:34:22;12.60;;;6.97;;
70683;SDS011;58263;48.146;11.440;2023-05-13T02:36:48;9.43;;;5.68;;
70683;SDS011;58263;48.146;11.440;2023-05-13T02:39:13;10.35;;;5.70;;
70683;SDS011;58263;48.146;11.440;2023-05-13T02:41:39;12.63;;;6.47;;
70683;SDS011;58263;48.146;11.440;2023-05-13T02:44:04;10.88;;;6.72;;
70683;SDS011;58263;48.146;11.440;2023-05-13T02:46:30;10.57;;;6.93;;
70683;SDS011;58263;48.146;11.440;2023-05-13T02:48:55;12.05;;;6.95;;
70683;SDS011;58263;48.146;11.440;2023-05-13T02:51:21;12.98;;;6.95;;
70683;SDS011;58263;48.146;11.440;2023-05-13T02:53:46;10.70;;;6.67;;
70683;SDS011;58263;48.146;11.440;2023-05-13T02:56:11;13.52;;;8.52;;
70683;SDS011;58263;48.146;11.440;2023-05-13T03:01:05;10.98;;;6.60;;
70683;SDS011;58263;48.146;11.440;2023-05-13T03:03:30;10.60;;;6.67;;
70683;SDS011;58263;48.146;11.440;2023-05-13T03:05:56;10.47;;;6.73;;
70683;SDS011;58263;48.146;11.440;2023-05-13T03:08:21;11.93;;;7.25;;
70683;SDS011;58263;48.146;11.440;2023-05-13T03:10:46;15.50;;;6.97;;
70683;SDS011;58263;48.146;11.440;2023-05-13T03:13:12;12.17;;;7.00;;
70683;SDS011;58263;48.146;11.440;2023-05-13T03:15:37;12.60;;;7.37;;
70683;SDS011;58263;48.146;11.440;2023-05-13T03:18:02;14.85;;;8.05;;
70683;SDS011;58263;48.146;11.440;2023-05-13T03:20:28;11.32;;;6.95;;
70683;SDS011;58263;48.146;11.440;2023-05-13T03:22:54;16.23;;;8.30;;
70683;SDS011;58263;48.146;11.440;2023-05-13T03:25:19;15.87;;;7.67;;
70683;SDS011;58263;48.146;11.440;2023-05-13T03:27:45;14.87;;;7.93;;
70683;SDS011;58263;48.146;11.440;2023-05-13T03:30:10;17.87;;;7.60;;
70683;SDS011;58263;48.146;11.440;2023-05-13T03:32:36;12.90;;;7.55;;
70683;SDS011;58263;48.146;11.440;2023-05-13T03:35:01;14.97;;;7.33;;
70683;SDS011;58263;48.146;11.440;2023-05-13T03:37:26;16.33;;;8.10;;
70683;SDS011;58263;48.146;11.440;2023-05-13T03:39:52;12.50;;;7.93;;
70683;SDS011;58263;48.146;11.440;2023-05-13T03:42:17;13.67;;;8.27;;
70683;SDS011;58263;48.146;11.440;2023-05-13T03:44:44;12.77;;;7.18;;
70683;SDS011;58263;48.146;11.440;2023-05-13T03:47:09;10.75;;;7.28;;
70683;SDS011;58263;48.146;11.440;2023-05-13T03:49:35;10.70;;;7.10;;
70683;SDS011;58263;48.146;11.440;2023-05-13T03:52:00;13.57;;;7.13;;
70683;SDS011;58263;48.146;11.440;2023-05-13T03:54:25;13.18;;;6.45;;
70683;SDS011;58263;48.146;11.440;2023-05-13T03:56:51;9.87;;;6.37;;
70683;SDS011;58263;48.146;11.440;2023-05-13T03:59:16;11.57;;;6.57;;
70683;SDS011;58263;48.146;11.440;2023-05-13T04:01:41;13.37;;;6.77;;
70683;SDS011;58263;48.146;11.440;2023-05-13T04:04:06;11.30;;;6.43;;
70683;SDS011;58263;48.146;11.440;2023-05-13T04:06:32;11.53;;;7.30;;
70683;SDS011;58263;48.146;11.440;2023-05-13T04:08:57;12.43;;;6.80;;
70683;SDS011;58263;48.146;11.440;2023-05-13T04:11:22;12.07;;;7.60;;
70683;SDS011;58263;48.146;11.440;2023-05-13T04:13:48;10.87;;;6.43;;
70683;SDS011;58263;48.146;11.440;2023-05-13T04:16:13;8.87;;;5.97;;
70683;SDS011;58263;48.146;11.440;2023-05-13T04:18:38;14.37;;;7.20;;
70683;SDS011;58263;48.146;11.440;2023-05-13T04:21:04;13.85;;;7.60;;
70683;SDS011;58263;48.146;11.440;2023-05-13T04:23:33;11.25;;;6.03;;
70683;SDS011;58263;48.146;11.440;2023-05-13T04:25:58;13.50;;;7.17;;
70683;SDS011;58263;48.146;11.440;2023-05-13T04:28:23;10.93;;;6.90;;
70683;SDS011;58263;48.146;11.440;2023-05-13T04:30:49;15.55;;;7.70;;
70683;SDS011;58263;48.146;11.440;2023-05-13T04:33:14;13.83;;;7.33;;
70683;SDS011;58263;48.146;11.440;2023-05-13T04:35:40;13.32;;;7.68;;
70683;SDS011;58263;48.146;11.440;2023-05-13T04:38:06;12.48;;;7.70;;
70683;SDS011;58263;48.146;11.440;2023-05-13T04:40:31;11.70;;;7.03;;
70683;SDS011;58263;48.146;11.440;2023-05-13T04:42:56;12.50;;;7.70;;
70683;SDS011;58263;48.146;11.440;2023-05-13T04:45:22;12.60;;;7.77;;
70683;SDS011;58263;48.146;11.440;2023-05-13T04:47:47;12.20;;;7.53;;
70683;SDS011;58263;48.146;11.440;2023-05-13T04:50:13;13.43;;;7.00;;
70683;SDS011;58263;48.146;11.440;2023-05-13T04:52:38;11.45;;;6.93;;
70683;SDS011;58263;48.146;11.440;2023-05-13T04:55:06;12.30;;;7.50;;
70683;SDS011;58263;48.146;11.440;2023-05-13T04:57:35;13.07;;;7.47;;
70683;SDS011;58263;48.146;11.440;2023-05-13T05:00:00;13.38;;;7.50;;
70683;SDS011;58263;48.146;11.440;2023-05-13T05:02:26;12.90;;;7.40;;
70683;SDS011;58263;48.146;11.440;2023-05-13T05:04:54;13.25;;;8.27;;
70683;SDS011;58263;48.146;11.440;2023-05-13T05:07:22;11.88;;;7.53;;
70683;SDS011;58263;48.146;11.440;2023-05-13T05:09:48;13.75;;;7.60;;
70683;SDS011;58263;48.146;11.440;2023-05-13T05:12:13;13.43;;;7.70;;
70683;SDS011;58263;48.146;11.440;2023-05-13T05:14:39;13.70;;;8.77;;
70683;SDS011;58263;48.146;11.440;2023-05-13T05:17:04;14.38;;;9.20;;
70683;SDS011;58263;48.146;11.440;2023-05-13T05:19:30;12.33;;;8.13;;
70683;SDS011;58263;48.146;11.440;2023-05-13T05:21:55;13.70;;;8.93;;
70683;SDS011;58263;48.146;11.440;2023-05-13T05:24:20;13.43;;;8.65;;
70683;SDS011;58263;48.146;11.440;2023-05-13T05:26:46;15.57;;;9.30;;
70683;SDS011;58263;48.146;11.440;2023-05-13T05:29:11;14.87;;;8.40;;
70683;SDS011;58263;48.146;11.440;2023-05-13T05:31:36;10.47;;;7.17;;
70683;SDS011;58263;48.146;11.440;2023-05-13T05:34:02;13.40;;;8.20;;
70683;SDS011;58263;48.146;11.440;2023-05-13T05:36:28;14.20;;;8.05;;
70683;SDS011;58263;48.146;11.440;2023-05-13T05:38:53;14.30;;;8.25;;
70683;SDS011;58263;48.146;11.440;2023-05-13T05:41:19;12.77;;;7.90;;
70683;SDS011;58263;48.146;11.440;2023-05-13T05:43:45;11.15;;;6.85;;
70683;SDS011;58263;48.146;11.440;2023-05-13T05:46:10;11.47;;;7.40;;
70683;SDS011;58263;48.146;11.440;2023-05-13T05:48:36;14.30;;;7.97;;
70683;SDS011;58263;48.146;11.440;2023-05-13T05:51:01;13.43;;;7.33;;
70683;SDS011;58263;48.146;11.440;2023-05-13T05:53:27;11.20;;;7.10;;
70683;SDS011;58263;48.146;11.440;2023-05-13T05:55:52;10.38;;;7.03;;
70683;SDS011;58263;48.146;11.440;2023-05-13T05:58:18;12.38;;;7.68;;
70683;SDS011;58263;48.146;11.440;2023-05-13T06:00:43;12.35;;;7.60;;
70683;SDS011;58263;48.146;11.440;2023-05-13T06:03:09;12.18;;;7.45;;
70683;SDS011;58263;48.146;11.440;2023-05-13T06:05:34;12.55;;;7.30;;
70683;SDS011;58263;48.146;11.440;2023-05-13T06:08:00;11.65;;;6.75;;
70683;SDS011;58263;48.146;11.440;2023-05-13T06:10:25;14.40;;;6.97;;
70683;SDS011;58263;48.146;11.440;2023-05-13T06:12:50;12.27;;;6.47;;
70683;SDS011;58263;48.146;11.440;2023-05-13T06:15:15;13.67;;;7.07;;
70683;SDS011;58263;48.146;11.440;2023-05-13T06:17:41;11.27;;;6.20;;
70683;SDS011;58263;48.146;11.440;2023-05-13T06:20:06;11.60;;;6.97;;
70683;SDS011;58263;48.146;11.440;2023-05-13T06:22:32;11.13;;;7.03;;
70683;SDS011;58263;48.146;11.440;2023-05-13T06:24:57;10.03;;;6.43;;
70683;SDS011;58263;48.146;11.440;2023-05-13T06:27:23;14.27;;;6.10;;
70683;SDS011;58263;48.146;11.440;2023-05-13T06:29:48;9.88;;;6.35;;
70683;SDS011;58263;48.146;11.440;2023-05-13T06:32:14;9.35;;;6.15;;
70683;SDS011;58263;48.146;11.440;2023-05-13T06:34:40;10.50;;;6.50;;
70683;SDS011;58263;48.146;11.440;2023-05-13T06:37:09;9.05;;;5.88;;
70683;SDS011;58263;48.146;11.440;2023-05-13T06:39:35;9.25;;;6.03;;
70683;SDS011;58263;48.146;11.440;2023-05-13T06:42:00;7.63;;;5.40;;
70683;SDS011;58263;48.146;11.440;2023-05-13T06:44:25;8.80;;;5.90;;
70683;SDS011;58263;48.146;11.440;2023-05-13T06:46:51;10.03;;;6.43;;
70683;SDS011;58263;48.146;11.440;2023-05-13T06:49:16;11.90;;;6.33;;
70683;SDS011;58263;48.146;11.440;2023-05-13T06:51:41;10.37;;;5.73;;
70683;SDS011;58263;48.146;11.440;2023-05-13T06:54:07;10.87;;;6.03;;
70683;SDS011;58263;48.146;11.440;2023-05-13T06:56:33;8.85;;;5.50;;
70683;SDS011;58263;48.146;11.440;2023-05-13T06:58:58;9.48;;;5.20;;
70683;SDS011;58263;48.146;11.440;2023-05-13T07:01:24;10.23;;;5.80;;
70683;SDS011;58263;48.146;11.440;2023-05-13T07:03:49;9.32;;;5.53;;
70683;SDS011;58263;48.146;11.440;2023-05-13T07:06:14;11.80;;;5.50;;
70683;SDS011;58263;48.146;11.440;2023-05-13T07:08:40;10.02;;;5.18;;
70683;SDS011;58263;48.146;11.440;2023-05-13T07:11:05;7.73;;;4.60;;
70683;SDS011;58263;48.146;11.440;2023-05-13T07:13:31;8.38;;;5.00;;
70683;SDS011;58263;48.146;11.440;2023-05-13T07:15:58;8.38;;;5.03;;
70683;SDS011;58263;48.146;11.440;2023-05-13T07:18:24;10.00;;;5.45;;
70683;SDS011;58263;48.146;11.440;2023-05-13T07:20:50;7.70;;;4.73;;
70683;SDS011;58263;48.146;11.440;2023-05-13T07:23:15;8.98;;;5.05;;
70683;SDS011;58263;48.146;11.440;2023-05-13T07:25:40;8.13;;;4.80;;
70683;SDS011;58263;48.146;11.440;2023-05-13T07:28:06;12.45;;;5.50;;
70683;SDS011;58263;48.146;11.440;2023-05-13T07:30:32;8.70;;;5.72;;
70683;SDS011;58263;48.146;11.440;2023-05-13T07:32:57;9.40;;;5.75;;
70683;SDS011;58263;48.146;11.440;2023-05-13T07:35:22;9.50;;;5.47;;
70683;SDS011;58263;48.146;11.440;2023-05-13T07:37:48;10.15;;;6.05;;
70683;SDS011;58263;48.146;11.440;2023-05-13T07:40:13;11.83;;;5.83;;
70683;SDS011;58263;48.146;11.440;2023-05-13T07:42:39;10.25;;;6.30;;
70683;SDS011;58263;48.146;11.440;2023-05-13T07:45:05;10.55;;;5.90;;
70683;SDS011;58263;48.146;11.440;2023-05-13T07:47:31;8.25;;;5.10;;
70683;SDS011;58263;48.146;11.440;2023-05-13T07:49:57;9.07;;;5.35;;
70683;SDS011;58263;48.146;11.440;2023-05-13T07:52:23;9.77;;;5.82;;
70683;SDS011;58263;48.146;11.440;2023-05-13T07:54:48;8.37;;;5.40;;
70683;SDS011;58263;48.146;11.440;2023-05-13T07:57:13;10.27;;;6.00;;
70683;SDS011;58263;48.146;11.440;2023-05-13T07:59:39;10.57;;;5.68;;
70683;SDS011;58263;48.146;11.440;2023-05-13T08:02:04;9.13;;;5.80;;
70683;SDS011;58263;48.146;11.440;2023-05-13T08:04:30;10.98;;;6.15;;
70683;SDS011;58263;48.146;11.440;2023-05-13T08:06:56;8.88;;;5.88;;
70683;SDS011;58263;48.146;11.440;2023-05-13T08:09:21;9.40;;;5.67;;
70683;SDS011;58263;48.146;11.440;2023-05-13T08:11:46;10.17;;;6.13;;
70683;SDS011;58263;48.146;11.440;2023-05-13T08:14:12;12.03;;;6.60;;
70683;SDS011;58263;48.146;11.440;2023-05-13T08:16:37;10.97;;;6.23;;
70683;SDS011;58263;48.146;11.440;2023-05-13T08:19:02;11.20;;;6.47;;
70683;SDS011;58263;48.146;11.440;2023-05-13T08:21:28;10.52;;;6.18;;
70683;SDS011;58263;48.146;11.440;2023-05-13T08:23:54;9.97;;;6.23;;
70683;SDS011;58263;48.146;11.440;2023-05-13T08:26:19;11.00;;;6.68;;
70683;SDS011;58263;48.146;11.440;2023-05-13T08:28:44;11.27;;;6.50;;
70683;SDS011;58263;48.146;11.440;2023-05-13T08:31:13;11.77;;;6.55;;
70683;SDS011;58263;48.146;11.440;2023-05-13T08:33:38;10.27;;;6.30;;
70683;SDS011;58263;48.146;11.440;2023-05-13T08:36:05;10.98;;;6.65;;
70683;SDS011;58263;48.146;11.440;2023-05-13T08:38:31;11.50;;;6.85;;
70683;SDS011;58263;48.146;11.440;2023-05-13T08:40:57;11.23;;;6.15;;
70683;SDS011;58263;48.146;11.440;2023-05-13T08:43:23;11.30;;;6.68;;
70683;SDS011;58263;48.146;11.440;2023-05-13T08:45:51;11.77;;;6.63;;
70683;SDS011;58263;48.146;11.440;2023-05-13T08:48:18;10.13;;;6.38;;
70683;SDS011;58263;48.146;11.440;2023-05-13T08:50:44;10.68;;;6.97;;
70683;SDS011;58263;48.146;11.440;2023-05-13T08:53:11;10.55;;;6.35;;
70683;SDS011;58263;48.146;11.440;2023-05-13T08:55:39;10.48;;;5.93;;
70683;SDS011;58263;48.146;11.440;2023-05-13T09:00:31;10.10;;;5.63;;
70683;SDS011;58263;48.146;11.440;2023-05-13T09:03:00;8.90;;;5.68;;
70683;SDS011;58263;48.146;11.440;2023-05-13T09:05:26;9.88;;;5.80;;
70683;SDS011;58263;48.146;11.440;2023-05-13T09:07:52;8.85;;;5.85;;
70683;SDS011;58263;48.146;11.440;2023-05-13T09:10:18;7.85;;;5.10;;
70683;SDS011;58263;48.146;11.440;2023-05-13T09:15:20;8.38;;;4.88;;
70683;SDS011;58263;48.146;11.440;2023-05-13T09:17:48;7.38;;;4.72;;
70683;SDS011;58263;48.146;11.440;2023-05-13T09:20:16;8.70;;;5.28;;
70683;SDS011;58263;48.146;11.440;2023-05-13T09:22:47;10.73;;;6.32;;
70683;SDS011;58263;48.146;11.440;2023-05-13T09:25:17;9.75;;;6.18;;
70683;SDS011;58263;48.146;11.440;2023-05-13T09:27:49;10.85;;;6.40;;
70683;SDS011;58263;48.146;11.440;2023-05-13T09:30:16;11.55;;;6.30;;
70683;SDS011;58263;48.146;11.440;2023-05-13T09:32:44;12.55;;;7.22;;
70683;SDS011;58263;48.146;11.440;2023-05-13T09:35:13;9.82;;;6.13;;
70683;SDS011;58263;48.146;11.440;2023-05-13T09:37:45;12.00;;;6.55;;
70683;SDS011;58263;48.146;11.440;2023-05-13T09:40:13;9.23;;;5.57;;
70683;SDS011;58263;48.146;11.440;2023-05-13T09:42:43;8.30;;;5.68;;
70683;SDS011;58263;48.146;11.440;2023-05-13T09:45:10;9.07;;;5.22;;
70683;SDS011;58263;48.146;11.440;2023-05-13T09:47:37;7.40;;;5.38;;
70683;SDS011;58263;48.146;11.440;2023-05-13T09:50:03;7.88;;;5.30;;
70683;SDS011;58263;48.146;11.440;2023-05-13T09:52:32;9.85;;;5.45;;
70683;SDS011;58263;48.146;11.440;2023-05-13T09:54:59;7.78;;;4.82;;
70683;SDS011;58263;48.146;11.440;2023-05-13T09:57:28;7.50;;;5.28;;
70683;SDS011;58263;48.146;11.440;2023-05-13T10:00:00;7.28;;;5.00;;
70683;SDS011;58263;48.146;11.440;2023-05-13T10:02:29;8.13;;;5.22;;
70683;SDS011;58263;48.146;11.440;2023-05-13T10:04:55;7.50;;;4.93;;
70683;SDS011;58263;48.146;11.440;2023-05-13T10:07:21;8.25;;;5.57;;
70683;SDS011;58263;48.146;11.440;2023-05-13T10:09:52;7.78;;;5.28;;
70683;SDS011;58263;48.146;11.440;2023-05-13T10:12:23;8.57;;;5.15;;
70683;SDS011;58263;48.146;11.440;2023-05-13T10:17:17;7.22;;;4.35;;
70683;SDS011;58263;48.146;11.440;2023-05-13T10:19:44;6.40;;;4.32;;
70683;SDS011;58263;48.146;11.440;2023-05-13T10:22:09;6.32;;;3.90;;
70683;SDS011;58263;48.146;11.440;2023-05-13T10:24:37;6.65;;;4.60;;
70683;SDS011;58263;48.146;11.440;2023-05-13T10:27:03;6.95;;;5.10;;
70683;SDS011;58263;48.146;11.440;2023-05-13T10:29:30;8.05;;;4.80;;
70683;SDS011;58263;48.146;11.440;2023-05-13T10:31:56;6.43;;;4.37;;
70683;SDS011;58263;48.146;11.440;2023-05-13T10:34:22;6.90;;;4.20;;
70683;SDS011;58263;48.146;11.440;2023-05-13T10:36:57;6.50;;;4.60;;
70683;SDS011;58263;48.146;11.440;2023-05-13T10:45:02;6.63;;;4.35;;
70683;SDS011;58263;48.146;11.440;2023-05-13T10:47:31;7.25;;;4.65;;
70683;SDS011;58263;48.146;11.440;2023-05-13T10:49:57;6.47;;;4.10;;
70683;SDS011;58263;48.146;11.440;2023-05-13T10:52:29;6.80;;;4.22;;
70683;SDS011;58263;48.146;11.440;2023-05-13T10:55:06;5.22;;;3.55;;
70683;SDS011;58263;48.146;11.440;2023-05-13T10:58:01;7.18;;;3.97;;
70683;SDS011;58263;48.146;11.440;2023-05-13T11:00:31;5.60;;;3.90;;
70683;SDS011;58263;48.146;11.440;2023-05-13T11:03:03;6.78;;;4.05;;
70683;SDS011;58263;48.146;11.440;2023-05-13T11:05:33;6.85;;;4.45;;
70683;SDS011;58263;48.146;11.440;2023-05-13T11:07:58;6.78;;;4.45;;
70683;SDS011;58263;48.146;11.440;2023-05-13T11:10:27;6.10;;;4.10;;
70683;SDS011;58263;48.146;11.440;2023-05-13T11:18:19;6.03;;;4.10;;
70683;SDS011;58263;48.146;11.440;2023-05-13T11:20:53;5.15;;;3.80;;
70683;SDS011;58263;48.146;11.440;2023-05-13T11:23:18;5.65;;;3.85;;
70683;SDS011;58263;48.146;11.440;2023-05-13T11:25:44;5.30;;;3.83;;
70683;SDS011;58263;48.146;11.440;2023-05-13T11:28:14;4.63;;;3.42;;
70683;SDS011;58263;48.146;11.440;2023-05-13T11:30:52;4.55;;;3.28;;
70683;SDS011;58263;48.146;11.440;2023-05-13T11:33:21;6.22;;;3.97;;
70683;SDS011;58263;48.146;11.440;2023-05-13T11:35:53;5.27;;;3.47;;
70683;SDS011;58263;48.146;11.440;2023-05-13T11:38:21;3.83;;;3.10;;
70683;SDS011;58263;48.146;11.440;2023-05-13T11:40:48;4.47;;;3.10;;
70683;SDS011;58263;48.146;11.440;2023-05-13T11:43:18;3.50;;;3.10;;
70683;SDS011;58263;48.146;11.440;2023-05-13T11:45:45;4.47;;;3.40;;
70683;SDS011;58263;48.146;11.440;2023-05-13T11:48:17;4.25;;;3.30;;
70683;SDS011;58263;48.146;11.440;2023-05-13T11:50:47;4.75;;;3.67;;
70683;SDS011;58263;48.146;11.440;2023-05-13T11:53:17;4.95;;;3.70;;
70683;SDS011;58263;48.146;11.440;2023-05-13T11:55:45;4.80;;;3.75;;
70683;SDS011;58263;48.146;11.440;2023-05-13T11:58:12;5.28;;;3.50;;
70683;SDS011;58263;48.146;11.440;2023-05-13T12:00:39;3.97;;;3.42;;
70683;SDS011;58263;48.146;11.440;2023-05-13T12:03:08;5.22;;;3.95;;
70683;SDS011;58263;48.146;11.440;2023-05-13T12:05:35;4.10;;;3.20;;
70683;SDS011;58263;48.146;11.440;2023-05-13T12:08:01;4.57;;;3.33;;
70683;SDS011;58263;48.146;11.440;2023-05-13T12:10:26;4.88;;;3.50;;
70683;SDS011;58263;48.146;11.440;2023-05-13T12:12:52;4.55;;;3.28;;
70683;SDS011;58263;48.146;11.440;2023-05-13T12:15:18;5.88;;;3.67;;
70683;SDS011;58263;48.146;11.440;2023-05-13T12:17:45;4.28;;;3.45;;
70683;SDS011;58263;48.146;11.440;2023-05-13T12:20:12;5.05;;;3.58;;
70683;SDS011;58263;48.146;11.440;2023-05-13T12:28:06;5.65;;;3.40;;
70683;SDS011;58263;48.146;11.440;2023-05-13T12:30:32;13.63;;;4.57;;
70683;SDS011;58263;48.146;11.440;2023-05-13T12:32:59;41.88;;;11.93;;
70683;SDS011;58263;48.146;11.440;2023-05-13T12:35:24;7.73;;;3.73;;
70683;SDS011;58263;48.146;11.440;2023-05-13T12:38:02;8.53;;;4.10;;
70683;SDS011;58263;48.146;11.440;2023-05-13T12:40:28;7.13;;;3.67;;
70683;SDS011;58263;48.146;11.440;2023-05-13T12:42:57;4.05;;;2.30;;
70683;SDS011;58263;48.146;11.440;2023-05-13T12:45:27;10.20;;;3.75;;
70683;SDS011;58263;48.146;11.440;2023-05-13T12:47:54;9.30;;;3.13;;
70683;SDS011;58263;48.146;11.440;2023-05-13T12:50:20;10.60;;;4.32;;
70683;SDS011;58263;48.146;11.440;2023-05-13T12:52:45;10.17;;;5.03;;
70683;SDS011;58263;48.146;11.440;2023-05-13T12:55:10;15.77;;;5.87;;
70683;SDS011;58263;48.146;11.440;2023-05-13T12:57:37;5.60;;;3.00;;
70683;SDS011;58263;48.146;11.440;2023-05-13T13:00:04;4.57;;;2.72;;
70683;SDS011;58263;48.146;11.440;2023-05-13T13:02:30;15.65;;;3.63;;
70683;SDS011;58263;48.146;11.440;2023-05-13T13:04:55;2.88;;;2.33;;
70683;SDS011;58263;48.146;11.440;2023-05-13T13:07:21;2.30;;;2.10;;
70683;SDS011;58263;48.146;11.440;2023-05-13T13:09:46;2.53;;;1.93;;
70683;SDS011;58263;48.146;11.440;2023-05-13T13:12:11;2.50;;;2.30;;
70683;SDS011;58263;48.146;11.440;2023-05-13T13:14:36;3.05;;;2.70;;
70683;SDS011;58263;48.146;11.440;2023-05-13T13:17:02;2.47;;;2.27;;
70683;SDS011;58263;48.146;11.440;2023-05-13T13:19:27;2.40;;;2.20;;
70683;SDS011;58263;48.146;11.440;2023-05-13T13:21:52;2.43;;;2.33;;
70683;SDS011;58263;48.146;11.440;2023-05-13T13:24:18;3.27;;;2.37;;
70683;SDS011;58263;48.146;11.440;2023-05-13T13:26:43;2.65;;;2.35;;
70683;SDS011;58263;48.146;11.440;2023-05-13T13:29:08;2.60;;;2.40;;
70683;SDS011;58263;48.146;11.440;2023-05-13T13:31:34;2.47;;;2.27;;
70683;SDS011;58263;48.146;11.440;2023-05-13T13:33:59;2.90;;;2.10;;
70683;SDS011;58263;48.146;11.440;2023-05-13T13:36:28;2.50;;;2.30;;
70683;SDS011;58263;48.146;11.440;2023-05-13T13:38:53;2.65;;;2.45;;
70683;SDS011;58263;48.146;11.440;2023-05-13T13:41:19;3.03;;;2.60;;
70683;SDS011;58263;48.146;11.440;2023-05-13T13:43:45;2.65;;;2.45;;
70683;SDS011;58263;48.146;11.440;2023-05-13T13:46:10;3.30;;;2.27;;
70683;SDS011;58263;48.146;11.440;2023-05-13T13:48:35;3.90;;;3.10;;
70683;SDS011;58263;48.146;11.440;2023-05-13T13:51:00;2.70;;;2.50;;
70683;SDS011;58263;48.146;11.440;2023-05-13T13:53:26;2.40;;;2.20;;
70683;SDS011;58263;48.146;11.440;2023-05-13T13:55:51;2.50;;;2.30;;
70683;SDS011;58263;48.146;11.440;2023-05-13T13:58:16;2.43;;;2.23;;
70683;SDS011;58263;48.146;11.440;2023-05-13T14:00:42;2.30;;;2.10;;
70683;SDS011;58263;48.146;11.440;2023-05-13T14:03:07;8.17;;;2.50;;
70683;SDS011;58263;48.146;11.440;2023-05-13T14:05:32;2.60;;;2.40;;
70683;SDS011;58263;48.146;11.440;2023-05-13T14:07:58;2.30;;;1.90;;
70683;SDS011;58263;48.146;11.440;2023-05-13T14:10:23;2.23;;;2.00;;
70683;SDS011;58263;48.146;11.440;2023-05-13T14:12:48;2.23;;;2.03;;
70683;SDS011;58263;48.146;11.440;2023-05-13T14:15:14;2.55;;;2.28;;
70683;SDS011;58263;48.146;11.440;2023-05-13T14:17:40;2.47;;;2.28;;
70683;SDS011;58263;48.146;11.440;2023-05-13T14:20:06;2.03;;;1.93;;
70683;SDS011;58263;48.146;11.440;2023-05-13T14:22:34;2.50;;;2.30;;
70683;SDS011;58263;48.146;11.440;2023-05-13T14:24:59;2.40;;;2.17;;
70683;SDS011;58263;48.146;11.440;2023-05-13T14:27:25;2.08;;;1.90;;
70683;SDS011;58263;48.146;11.440;2023-05-13T14:29:50;2.47;;;2.27;;
70683;SDS011;58263;48.146;11.440;2023-05-13T14:32:15;2.97;;;2.00;;
70683;SDS011;58263;48.146;11.440;2023-05-13T14:34:41;4.50;;;2.40;;
70683;SDS011;58263;48.146;11.440;2023-05-13T14:37:07;2.03;;;1.92;;
70683;SDS011;58263;48.146;11.440;2023-05-13T14:39:33;2.35;;;2.25;;
70683;SDS011;58263;48.146;11.440;2023-05-13T14:42:01;1.98;;;1.88;;
70683;SDS011;58263;48.146;11.440;2023-05-13T14:44:27;3.65;;;2.20;;
70683;SDS011;58263;48.146;11.440;2023-05-13T14:46:52;2.37;;;2.27;;
70683;SDS011;58263;48.146;11.440;2023-05-13T14:49:18;2.10;;;2.00;;
70683;SDS011;58263;48.146;11.440;2023-05-13T14:51:43;2.60;;;2.00;;
70683;SDS011;58263;48.146;11.440;2023-05-13T14:54:08;2.47;;;2.20;;
70683;SDS011;58263;48.146;11.440;2023-05-13T14:56:34;2.10;;;2.00;;